Time;durP1;ratioP1;P1;durP2;ratioP2;P2;SDS_P1;SDS_P2;PMS_P1;PMS_P2;Temp;Humidity;BMP_temperature;BMP_pressure;BME280_temperature;BME280_humidity;BME280_pressure;Samples;Min_cycle;Max_cycle;Signal;HPM_P1;HPM_P2
2021/10/13 00:01:32;;;;;;;34.92;7.32;;;;;;;5.32;100.00;99111.94;5063181;28;20017;-83
2021/10/13 00:03:58;;;;;;;42.78;6.05;;;;;;;5.08;99.67;99112.56;5062934;28;20048;-83
2021/10/13 00:06:23;;;;;;;14.15;6.15;;;;;;;5.07;100.00;99112.56;5064012;28;20359;-83
2021/10/13 00:08:49;;;;;;;61.45;7.47;;;;;;;5.12;100.00;99118.69;5064287;28;20094;-83
2021/10/13 00:11:14;;;;;;;75.03;7.32;;;;;;;5.00;100.00;99124.63;5064288;28;20379;-83
2021/10/13 00:13:40;;;;;;;81.13;8.90;;;;;;;5.04;100.00;99120.34;5064252;28;20021;-83
2021/10/13 00:16:05;;;;;;;25.20;9.07;;;;;;;5.09;100.00;99103.00;5064015;28;20320;-83
2021/10/13 00:18:32;;;;;;;41.17;7.43;;;;;;;5.02;100.00;99117.72;5063790;28;20021;-83
2021/10/13 00:20:57;;;;;;;40.60;7.13;;;;;;;5.02;100.00;99124.66;5064545;28;20075;-83
2021/10/13 00:23:22;;;;;;;58.72;4.72;;;;;;;4.78;99.93;99121.81;5063404;28;20025;-83
2021/10/13 00:25:49;;;;;;;6.57;4.03;;;;;;;4.75;99.85;99121.78;5063142;28;20138;-83
2021/10/13 00:28:14;;;;;;;18.25;4.80;;;;;;;4.78;100.00;99127.03;5061321;28;20025;-83
2021/10/13 00:30:39;;;;;;;24.75;4.88;;;;;;;4.72;99.67;99138.25;5063082;28;20251;-83
2021/10/13 00:33:05;;;;;;;13.75;4.65;;;;;;;4.63;99.33;99129.44;5063260;28;20025;-83
2021/10/13 00:35:30;;;;;;;18.38;5.10;;;;;;;4.63;99.18;99142.47;5063220;28;20052;-83
2021/10/13 00:37:56;;;;;;;28.55;4.60;;;;;;;4.66;99.17;99137.31;5064333;28;20029;-83
2021/10/13 00:40:21;;;;;;;32.15;4.88;;;;;;;4.53;99.00;99141.50;5063066;28;20024;-83
2021/10/13 00:42:46;;;;;;;12.63;5.50;;;;;;;4.55;99.33;99144.13;5063154;28;20051;-83
2021/10/13 00:45:12;;;;;;;7.63;4.43;;;;;;;4.62;99.29;99143.34;5063065;28;20028;-83
2021/10/13 00:47:37;;;;;;;13.82;4.25;;;;;;;4.38;97.97;99136.97;5062447;28;20024;-83
2021/10/13 00:50:08;;;;;;;21.85;4.07;;;;;;;4.36;98.70;99156.91;5063210;28;20055;-83
2021/10/13 00:52:36;;;;;;;8.57;3.92;;;;;;;4.32;98.17;99142.09;5062740;28;20104;-83
2021/10/13 00:55:01;;;;;;;15.05;4.22;;;;;;;4.20;98.14;99157.56;5062955;28;20048;-83
2021/10/13 00:57:27;;;;;;;7.47;4.00;;;;;;;4.23;98.41;99162.81;5061864;28;20075;-83
2021/10/13 00:59:52;;;;;;;6.10;4.05;;;;;;;4.25;98.69;99160.25;5062293;28;20104;-83
2021/10/13 01:02:27;;;;;;;5.85;3.78;;;;;;;4.12;98.52;99159.19;5063146;28;20052;-83
2021/10/13 01:04:55;;;;;;;6.53;3.88;;;;;;;4.17;98.57;99165.34;5063447;28;20094;-83
2021/10/13 01:07:44;;;;;;;39.42;4.40;;;;;;;3.92;97.88;99176.25;5062333;28;20031;-83
2021/10/13 01:10:36;;;;;;;33.92;3.85;;;;;;;3.95;98.22;99176.28;5061275;28;20013;-83
2021/10/13 01:13:14;;;;;;;10.93;4.63;;;;;;;3.89;98.61;99178.81;5063969;28;20225;-83
2021/10/13 01:15:52;;;;;;;23.00;4.38;;;;;;;3.69;98.45;99171.53;5063869;28;20212;-83
2021/10/13 01:18:48;;;;;;;9.93;4.25;;;;;;;3.87;98.50;99177.91;5062727;28;20024;-83
2021/10/13 01:21:46;;;;;;;13.95;4.18;;;;;;;3.89;98.76;99181.41;5076530;28;20135;-83
2021/10/13 01:24:39;;;;;;;24.17;4.43;;;;;;;3.76;98.99;99189.88;5062501;28;21445;-83
2021/10/13 01:28:00;;;;;;;14.23;4.55;;;;;;;3.79;98.99;99189.94;5061679;28;20330;-83
2021/10/13 01:30:33;;;;;;;21.65;4.78;;;;;;;3.80;99.14;99196.03;5061176;28;20031;-83
2021/10/13 01:33:06;;;;;;;12.90;4.05;;;;;;;3.70;99.29;99194.97;5061078;28;20092;-83
2021/10/13 01:35:34;;;;;;;7.65;4.22;;;;;;;3.77;99.32;99196.81;5061439;28;20084;-83
2021/10/13 01:38:04;;;;;;;9.10;4.32;;;;;;;3.84;98.23;99193.50;5061314;28;20103;-83
2021/10/13 01:40:31;;;;;;;18.63;4.40;;;;;;;3.78;97.80;99190.78;5043638;28;20036;-83
2021/10/13 01:43:00;;;;;;;6.15;3.92;;;;;;;3.89;97.99;99190.97;5065336;28;20033;-83
2021/10/13 01:45:26;;;;;;;10.27;3.78;;;;;;;3.92;98.04;99191.88;5048449;28;20236;-83
2021/10/13 01:47:53;;;;;;;5.05;3.15;;;;;;;3.87;97.23;99197.88;5048426;28;20052;-83
2021/10/13 01:50:19;;;;;;;7.85;3.72;;;;;;;3.68;96.91;99191.50;5048412;28;20016;-83
2021/10/13 01:52:48;;;;;;;5.82;3.38;;;;;;;3.64;96.68;99192.28;5064665;28;20067;-83
2021/10/13 01:55:17;;;;;;;16.58;4.07;;;;;;;3.52;96.18;99194.69;5034576;28;20197;-83
2021/10/13 01:57:45;;;;;;;6.28;3.10;;;;;;;3.47;96.24;99196.31;5042734;28;20278;-83
2021/10/13 02:00:14;;;;;;;11.15;3.72;;;;;;;3.42;96.46;99203.16;5050028;28;20032;-83
2021/10/13 02:02:41;;;;;;;13.48;3.28;;;;;;;3.32;97.34;99206.44;5046142;28;20037;-83
2021/10/13 02:05:08;;;;;;;5.75;3.53;;;;;;;3.37;97.13;99202.22;5057020;28;20210;-83
2021/10/13 02:07:37;;;;;;;6.20;3.45;;;;;;;3.28;97.92;99199.44;5066616;28;20024;-83
2021/10/13 02:10:07;;;;;;;4.30;2.85;;;;;;;3.26;97.50;99201.13;5080767;28;20321;-83
2021/10/13 02:12:37;;;;;;;5.80;3.67;;;;;;;3.27;97.64;99197.72;5066907;28;20328;-83
2021/10/13 02:15:06;;;;;;;9.35;2.88;;;;;;;3.16;97.89;99194.00;5067313;28;20096;-83
2021/10/13 02:17:33;;;;;;;11.00;3.22;;;;;;;3.11;97.61;99200.88;5065768;28;20021;-83
2021/10/13 02:20:01;;;;;;;12.30;3.25;;;;;;;3.03;98.15;99207.63;5065306;28;20032;-83
2021/10/13 02:22:31;;;;;;;3.90;2.67;;;;;;;3.06;97.75;99205.09;5065098;28;20059;-83
2021/10/13 02:24:57;;;;;;;11.63;3.17;;;;;;;2.87;97.91;99215.97;5066493;28;20312;-83
2021/10/13 02:27:32;;;;;;;4.20;2.85;;;;;;;2.86;98.09;99219.44;5066098;28;20339;-83
2021/10/13 02:29:57;;;;;;;6.43;2.95;;;;;;;2.73;97.86;99219.16;5061401;28;20080;-83
2021/10/13 02:32:23;;;;;;;4.40;3.03;;;;;;;2.84;98.01;99215.03;5065791;28;20359;-83
2021/10/13 02:34:49;;;;;;;5.75;3.10;;;;;;;2.75;97.53;99215.72;5064711;28;20252;-83
2021/10/13 02:37:16;;;;;;;4.90;3.00;;;;;;;2.75;97.37;99226.13;5064898;28;20032;-83
2021/10/13 02:39:41;;;;;;;4.15;2.92;;;;;;;2.68;97.25;99224.25;5066062;28;20044;-83
2021/10/13 02:42:07;;;;;;;6.30;3.88;;;;;;;2.61;97.06;99224.09;5066046;28;20347;-83
2021/10/13 02:44:33;;;;;;;6.97;3.58;;;;;;;2.68;97.53;99224.25;5065833;28;20088;-83
2021/10/13 02:47:30;;;;;;;5.60;3.63;;;;;;;2.55;97.26;99223.94;5065538;28;20043;-83
2021/10/13 02:50:09;;;;;;;6.07;3.08;;;;;;;2.56;97.45;99224.00;5065140;28;20013;-83
2021/10/13 02:52:44;;;;;;;6.57;3.38;;;;;;;2.53;97.58;99228.25;5065740;28;20338;-83
2021/10/13 02:55:19;;;;;;;7.10;3.50;;;;;;;2.56;97.94;99228.34;5064594;28;20331;-83
2021/10/13 02:58:15;;;;;;;6.35;3.63;;;;;;;2.48;97.85;99217.78;5065510;28;20017;-83
2021/10/13 03:00:43;;;;;;;3.47;2.22;;;;;;;2.56;97.21;99215.34;5063053;28;20443;-83
2021/10/13 03:03:14;;;;;;;6.35;3.25;;;;;;;2.59;97.33;99223.19;5065762;28;20384;-83
2021/10/13 03:05:43;;;;;;;5.82;3.33;;;;;;;2.47;97.48;99230.72;5064992;28;20021;-83
2021/10/13 03:08:11;;;;;;;7.65;3.47;;;;;;;2.57;97.99;99230.97;5064916;28;20025;-83
2021/10/13 03:10:39;;;;;;;4.97;3.35;;;;;;;2.54;97.09;99225.69;5065723;28;20171;-83
2021/10/13 03:13:07;;;;;;;7.78;3.63;;;;;;;2.44;96.79;99239.34;5064164;28;20016;-83
2021/10/13 03:15:33;;;;;;;10.40;3.58;;;;;;;2.51;97.18;99240.31;5064140;28;20052;-83
2021/10/13 03:18:00;;;;;;;18.85;3.35;;;;;;;2.28;97.00;99229.44;5080546;28;20340;-83
2021/10/13 03:20:29;;;;;;;5.47;3.55;;;;;;;2.29;97.60;99233.78;5065250;28;20293;-83
2021/10/13 03:22:59;;;;;;;5.30;3.40;;;;;;;2.24;97.84;99232.78;5063759;28;20025;-83
2021/10/13 03:25:32;;;;;;;6.32;3.60;;;;;;;2.35;98.12;99244.31;5061514;28;20021;-83
2021/10/13 03:27:59;;;;;;;8.75;3.70;;;;;;;2.47;98.71;99244.59;5065344;28;20071;-83
2021/10/13 03:30:25;;;;;;;15.80;3.78;;;;;;;2.53;99.01;99249.91;5064939;28;20020;-83
2021/10/13 03:32:50;;;;;;;9.15;3.45;;;;;;;2.49;98.56;99242.88;5063946;28;20328;-83
2021/10/13 03:35:23;;;;;;;12.68;3.53;;;;;;;2.49;97.95;99253.28;5063676;28;20021;-83
2021/10/13 03:37:49;;;;;;;18.88;3.53;;;;;;;2.38;97.52;99259.09;5063960;28;20024;-83
2021/10/13 03:40:16;;;;;;;11.75;3.83;;;;;;;2.36;97.13;99256.44;5064971;28;20077;-83
2021/10/13 03:42:41;;;;;;;8.85;3.67;;;;;;;2.32;97.47;99254.63;5063547;28;20017;-83
2021/10/13 03:45:07;;;;;;;6.53;3.25;;;;;;;2.38;97.45;99267.78;5064539;28;20089;-83
2021/10/13 03:47:32;;;;;;;7.78;3.35;;;;;;;2.41;97.79;99277.34;5064625;28;20375;-83
2021/10/13 03:49:57;;;;;;;21.02;3.60;;;;;;;2.48;98.01;99277.53;5063609;28;20021;-83
2021/10/13 03:52:23;;;;;;;7.50;3.50;;;;;;;2.39;97.98;99290.28;5063285;28;20110;-83
2021/10/13 03:54:48;;;;;;;13.10;3.75;;;;;;;2.39;98.60;99292.00;5063424;28;20033;-83
2021/10/13 03:57:14;;;;;;;6.63;3.67;;;;;;;2.53;98.27;99291.47;5064372;28;20044;-83
2021/10/13 03:59:39;;;;;;;6.20;3.50;;;;;;;2.60;98.36;99295.09;5063162;28;20032;-83
2021/10/13 04:02:05;;;;;;;6.72;3.53;;;;;;;2.54;97.76;99289.75;5063160;28;20086;-84
2021/10/13 04:04:30;;;;;;;14.60;3.80;;;;;;;2.51;97.77;99293.19;5063534;28;20044;-83
2021/10/13 04:06:55;;;;;;;26.65;4.40;;;;;;;2.63;97.88;99301.25;5064221;28;20024;-83
2021/10/13 04:09:21;;;;;;;5.93;3.97;;;;;;;2.71;98.55;99296.19;5063110;28;20021;-83
2021/10/13 04:11:46;;;;;;;9.35;3.60;;;;;;;2.83;98.33;99307.75;5063248;28;20028;-83
2021/10/13 04:14:12;;;;;;;7.63;3.38;;;;;;;2.81;97.77;99314.63;5063112;28;20220;-83
2021/10/13 04:16:37;;;;;;;18.52;4.28;;;;;;;2.74;97.29;99302.34;5063129;28;20021;-83
2021/10/13 04:19:03;;;;;;;9.93;3.97;;;;;;;2.65;97.56;99315.13;5062888;28;20124;-83
2021/10/13 04:21:28;;;;;;;12.18;3.22;;;;;;;2.72;96.98;99322.22;5063729;28;20028;-83
2021/10/13 04:23:54;;;;;;;17.80;3.67;;;;;;;2.82;97.40;99321.63;5064391;28;20025;-83
2021/10/13 04:26:19;;;;;;;10.10;3.67;;;;;;;2.80;97.08;99320.69;5063420;28;20024;-83
2021/10/13 04:28:46;;;;;;;31.42;3.72;;;;;;;2.69;97.20;99314.34;5064132;28;20313;-83
2021/10/13 04:31:11;;;;;;;4.60;2.95;;;;;;;2.78;97.66;99324.97;5062704;28;20070;-83
2021/10/13 04:33:37;;;;;;;5.40;2.75;;;;;;;2.86;97.06;99326.03;5063730;28;20197;-83
2021/10/13 04:36:03;;;;;;;16.00;4.20;;;;;;;2.73;97.65;99344.78;5063887;28;20366;-83
2021/10/13 04:38:28;;;;;;;9.90;3.63;;;;;;;2.64;97.94;99347.19;5060012;28;20024;-85
2021/10/13 04:40:54;;;;;;;7.55;3.75;;;;;;;2.70;98.67;99341.22;5063565;28;20382;-84
2021/10/13 04:43:19;;;;;;;28.02;3.70;;;;;;;2.74;98.52;99354.34;5062637;28;20052;-84
2021/10/13 04:45:44;;;;;;;5.05;3.17;;;;;;;2.75;98.91;99345.69;5064199;28;20071;-84
2021/10/13 04:48:10;;;;;;;5.45;3.35;;;;;;;2.89;98.70;99333.91;5064114;28;20093;-84
2021/10/13 04:50:35;;;;;;;18.55;3.45;;;;;;;2.54;98.17;99350.41;5062841;28;20013;-84
2021/10/13 04:53:01;;;;;;;8.73;2.92;;;;;;;2.68;99.19;99362.00;5064139;28;20020;-84
2021/10/13 04:55:26;;;;;;;16.42;3.30;;;;;;;2.81;98.43;99352.78;5064104;28;20028;-84
2021/10/13 04:57:52;;;;;;;29.58;3.53;;;;;;;2.80;98.29;99359.69;5064015;28;20324;-84
2021/10/13 05:00:17;;;;;;;21.63;3.50;;;;;;;2.72;98.87;99353.41;5063164;28;20024;-84
2021/10/13 05:02:42;;;;;;;21.30;3.63;;;;;;;2.79;98.81;99365.72;5063792;28;20041;-84
2021/10/13 05:05:08;;;;;;;21.80;2.78;;;;;;;2.68;99.07;99369.78;5063998;28;20312;-84
2021/10/13 05:07:33;;;;;;;12.05;3.25;;;;;;;2.77;98.85;99370.00;5063938;28;20316;-84
2021/10/13 05:09:59;;;;;;;18.42;3.40;;;;;;;2.76;98.74;99373.47;5062767;28;20017;-84
2021/10/13 05:12:24;;;;;;;8.32;2.90;;;;;;;2.74;98.75;99375.13;5062810;28;20025;-84
2021/10/13 05:14:50;;;;;;;17.52;2.85;;;;;;;2.84;98.57;99376.22;5062501;28;20051;-84
2021/10/13 05:17:15;;;;;;;4.97;3.15;;;;;;;2.93;98.09;99382.50;5062746;28;20028;-84
2021/10/13 05:19:41;;;;;;;12.13;3.47;;;;;;;2.95;97.83;99385.16;5062583;28;20323;-84
2021/10/13 05:22:07;;;;;;;4.95;3.00;;;;;;;2.96;97.75;99379.09;5063764;28;20027;-84
2021/10/13 05:24:33;;;;;;;4.38;2.85;;;;;;;3.01;97.40;99396.53;5062641;28;20025;-84
2021/10/13 05:26:58;;;;;;;6.05;3.35;;;;;;;3.03;96.81;99400.06;5062622;28;20039;-84
2021/10/13 05:29:23;;;;;;;11.35;3.08;;;;;;;2.86;96.23;99395.31;5062647;28;20197;-84
2021/10/13 05:31:49;;;;;;;8.68;3.38;;;;;;;2.75;96.75;99402.88;5063710;28;20028;-84
2021/10/13 05:34:14;;;;;;;11.30;3.20;;;;;;;2.76;97.24;99404.66;5062550;28;20017;-84
2021/10/13 05:36:40;;;;;;;18.50;3.90;;;;;;;2.63;97.65;99406.91;5062584;28;20084;-84
2021/10/13 05:39:05;;;;;;;10.90;3.90;;;;;;;2.73;98.32;99407.19;5062527;28;20050;-84
2021/10/13 05:41:31;;;;;;;10.40;3.33;;;;;;;2.82;98.82;99394.41;5062479;28;20067;-84
2021/10/13 05:43:56;;;;;;;7.40;3.50;;;;;;;2.73;99.00;99419.28;5062440;28;20216;-84
2021/10/13 05:46:21;;;;;;;8.80;3.90;;;;;;;2.87;98.61;99426.56;5062469;28;20212;-84
2021/10/13 05:48:47;;;;;;;12.63;3.75;;;;;;;2.90;98.32;99421.44;5063580;28;20021;-84
2021/10/13 05:51:12;;;;;;;6.07;3.67;;;;;;;2.91;98.37;99425.78;5062403;28;20312;-84
2021/10/13 05:53:38;;;;;;;16.67;3.13;;;;;;;2.83;97.68;99427.34;5063516;28;20324;-84
2021/10/13 05:56:03;;;;;;;7.07;3.10;;;;;;;2.82;98.10;99440.31;5062377;28;20016;-84
2021/10/13 05:58:29;;;;;;;8.68;2.60;;;;;;;2.97;97.87;99431.13;5062479;28;20104;-84
2021/10/13 06:00:55;;;;;;;16.25;3.10;;;;;;;2.86;97.49;99432.63;5062209;28;20083;-84
2021/10/13 06:03:21;;;;;;;18.80;3.75;;;;;;;2.75;97.51;99441.84;5062120;28;20363;-84
2021/10/13 06:05:46;;;;;;;6.88;3.63;;;;;;;2.77;97.91;99442.78;5062270;28;20016;-84
2021/10/13 06:08:13;;;;;;;10.52;3.15;;;;;;;2.81;97.69;99444.59;5062223;28;20027;-84
2021/10/13 06:10:39;;;;;;;8.98;3.25;;;;;;;2.74;97.66;99447.91;5063390;28;20017;-84
2021/10/13 06:13:04;;;;;;;16.10;3.45;;;;;;;2.81;97.65;99455.00;5062209;28;20101;-84
2021/10/13 06:15:34;;;;;;;9.90;3.55;;;;;;;2.75;97.57;99465.25;5062183;28;20021;-84
2021/10/13 06:18:04;;;;;;;9.63;3.55;;;;;;;2.88;97.80;99440.44;5062103;28;20020;-84
2021/10/13 06:20:30;;;;;;;21.35;3.95;;;;;;;2.93;97.81;99465.72;5062055;28;20045;-84
2021/10/13 06:22:55;;;;;;;9.68;4.20;;;;;;;3.00;97.56;99462.41;5062086;28;20028;-84
2021/10/13 06:25:21;;;;;;;11.82;3.70;;;;;;;3.00;97.23;99472.81;5062102;28;20017;-84
2021/10/13 06:27:46;;;;;;;6.03;3.38;;;;;;;3.23;97.38;99482.00;5064097;28;20021;-84
2021/10/13 06:30:12;;;;;;;8.10;3.47;;;;;;;3.27;96.80;99482.97;5066776;28;20013;-84
2021/10/13 06:32:38;;;;;;;6.07;3.60;;;;;;;3.43;95.89;99470.34;5066751;28;20025;-84
2021/10/13 06:35:03;;;;;;;5.68;3.20;;;;;;;3.32;94.72;99466.59;5065552;28;20067;-84
2021/10/13 06:37:29;;;;;;;13.25;3.70;;;;;;;3.36;95.84;99468.44;5066660;28;20208;-84
2021/10/13 06:39:54;;;;;;;8.13;3.80;;;;;;;3.41;95.36;99466.81;5066575;28;20040;-84
2021/10/13 06:42:20;;;;;;;5.40;3.15;;;;;;;3.43;95.09;99467.75;5066864;28;20021;-84
2021/10/13 06:44:45;;;;;;;8.60;3.13;;;;;;;3.43;95.68;99475.56;5065470;28;20324;-84
2021/10/13 06:47:11;;;;;;;11.80;3.97;;;;;;;3.48;95.44;99479.13;5066491;28;20025;-84
2021/10/13 06:49:36;;;;;;;13.80;4.13;;;;;;;3.54;95.84;99478.41;5065319;28;20343;-84
2021/10/13 06:52:01;;;;;;;13.68;3.63;;;;;;;3.61;95.85;99478.53;5065283;28;20021;-84
2021/10/13 06:54:27;;;;;;;7.07;3.95;;;;;;;3.54;96.10;99479.25;5066357;28;20017;-84
2021/10/13 06:56:52;;;;;;;12.63;3.70;;;;;;;3.59;96.48;99488.06;5065177;28;20017;-84
2021/10/13 06:59:17;;;;;;;7.35;4.00;;;;;;;3.90;95.89;99492.16;5066213;28;20048;-84
2021/10/13 07:01:43;;;;;;;6.15;3.30;;;;;;;3.82;95.42;99481.59;5065957;28;20020;-84
2021/10/13 07:04:08;;;;;;;7.45;3.83;;;;;;;3.93;95.12;99489.63;5066173;28;20319;-84
2021/10/13 07:06:34;;;;;;;8.25;3.35;;;;;;;3.81;93.46;99489.38;5066133;28;20025;-84
2021/10/13 07:08:59;;;;;;;9.30;4.22;;;;;;;3.88;93.83;99486.94;5066079;28;20021;-84
2021/10/13 07:11:24;;;;;;;5.38;3.03;;;;;;;3.98;93.67;99478.44;5064943;28;20048;-84
2021/10/13 07:13:50;;;;;;;5.38;3.15;;;;;;;4.13;93.78;99493.50;5064919;28;20028;-84
2021/10/13 07:16:15;;;;;;;6.07;3.45;;;;;;;4.11;94.28;99501.28;5064760;28;20020;-84
2021/10/13 07:18:41;;;;;;;4.97;2.97;;;;;;;4.22;94.07;99497.19;5065938;28;20028;-84
2021/10/13 07:21:06;;;;;;;7.45;3.13;;;;;;;4.20;94.30;99504.06;5065803;28;20029;-84
2021/10/13 07:23:32;;;;;;;5.93;3.55;;;;;;;4.31;94.49;99499.06;5064680;28;20082;-84
2021/10/13 07:25:57;;;;;;;5.55;3.13;;;;;;;4.42;93.61;99498.41;5065779;28;20296;-84
2021/10/13 07:28:25;;;;;;;8.93;3.92;;;;;;;4.45;94.01;99508.91;5064547;28;20370;-84
2021/10/13 07:30:51;;;;;;;8.85;3.85;;;;;;;4.55;94.53;99503.88;5065945;28;20021;-84
2021/10/13 07:33:16;;;;;;;15.40;4.15;;;;;;;4.62;93.62;99497.91;5065672;28;20025;-84
2021/10/13 07:35:42;;;;;;;7.60;4.10;;;;;;;4.87;94.19;99502.69;5065568;28;20313;-84
2021/10/13 07:38:11;;;;;;;6.32;3.83;;;;;;;4.96;93.63;99508.03;5065403;28;20043;-84
2021/10/13 07:40:36;;;;;;;6.85;3.55;;;;;;;5.06;92.27;99510.84;5064223;28;20162;-84
2021/10/13 07:43:02;;;;;;;6.60;3.60;;;;;;;4.96;92.33;99510.66;5065396;28;20248;-84
2021/10/13 07:45:28;;;;;;;6.07;3.83;;;;;;;4.89;93.07;99522.72;5064242;28;20043;-84
2021/10/13 07:47:53;;;;;;;11.82;4.13;;;;;;;5.04;94.06;99516.88;5065330;28;20051;-84
2021/10/13 07:50:19;;;;;;;5.70;3.45;;;;;;;5.25;94.11;99512.03;5064132;28;20135;-84
2021/10/13 07:52:45;;;;;;;5.60;3.70;;;;;;;5.42;92.77;99513.16;5064113;28;20286;-84
2021/10/13 07:55:10;;;;;;;6.13;3.40;;;;;;;5.52;93.03;99512.41;5065213;28;20201;-84
2021/10/13 07:57:37;;;;;;;6.57;3.80;;;;;;;5.75;93.15;99524.06;5065157;28;20324;-84
2021/10/13 08:00:04;;;;;;;7.38;3.53;;;;;;;5.98;92.77;99517.47;5063882;28;20035;-84
2021/10/13 08:02:30;;;;;;;5.43;3.45;;;;;;;5.97;91.36;99527.03;5063587;28;20111;-84
2021/10/13 08:04:55;;;;;;;6.05;3.22;;;;;;;6.06;92.45;99523.66;5064991;28;20025;-84
2021/10/13 08:07:20;;;;;;;7.53;3.83;;;;;;;6.15;92.36;99524.66;5063830;28;20340;-84
2021/10/13 08:09:46;;;;;;;6.43;4.18;;;;;;;6.08;92.97;99527.16;5063764;28;20021;-84
2021/10/13 08:12:11;;;;;;;7.50;4.25;;;;;;;6.24;92.82;99524.75;5063715;28;20027;-84
2021/10/13 08:14:37;;;;;;;6.95;4.38;;;;;;;6.32;93.54;99528.34;5063628;28;20025;-84
2021/10/13 08:17:03;;;;;;;11.50;5.78;;;;;;;6.28;94.12;99538.72;5064782;28;20028;-84
2021/10/13 08:19:29;;;;;;;10.55;5.70;;;;;;;6.40;94.49;99531.91;5063459;28;20031;-84
2021/10/13 08:21:54;;;;;;;12.38;6.05;;;;;;;6.58;95.50;99531.22;5063557;28;20032;-84
2021/10/13 08:24:20;;;;;;;10.45;6.07;;;;;;;6.70;95.11;99535.72;5064641;28;20367;-84
2021/10/13 08:26:45;;;;;;;10.23;5.65;;;;;;;6.86;94.61;99535.88;5064595;28;20048;-84
2021/10/13 08:29:11;;;;;;;16.35;7.25;;;;;;;6.95;94.95;99533.34;5064539;28;20033;-84
2021/10/13 08:31:37;;;;;;;14.45;6.95;;;;;;;6.71;94.46;99533.13;5064469;28;20028;-84
2021/10/13 08:34:02;;;;;;;11.40;7.13;;;;;;;6.92;95.09;99538.56;5064460;28;20059;-84
2021/10/13 08:36:27;;;;;;;14.10;7.10;;;;;;;7.11;94.49;99535.22;5063304;28;20308;-84
2021/10/13 08:38:53;;;;;;;11.07;6.47;;;;;;;7.31;94.61;99546.75;5063262;28;20020;-84
2021/10/13 08:41:18;;;;;;;16.00;7.68;;;;;;;7.36;93.54;99546.78;5063126;28;20095;-84
2021/10/13 08:43:44;;;;;;;15.80;7.93;;;;;;;7.32;94.35;99545.91;5063186;28;20391;-84
2021/10/13 08:46:11;;;;;;;14.30;7.38;;;;;;;7.32;93.74;99540.66;5064292;28;20025;-84
2021/10/13 08:48:36;;;;;;;13.32;7.78;;;;;;;7.52;93.83;99553.88;5063079;28;20024;-84
2021/10/13 08:51:02;;;;;;;13.85;8.50;;;;;;;7.65;94.38;99548.75;5063725;28;20027;-84
2021/10/13 08:53:27;;;;;;;20.13;9.23;;;;;;;7.66;94.93;99542.63;5063067;28;20385;-84
2021/10/13 08:55:53;;;;;;;14.77;8.68;;;;;;;7.78;94.62;99545.34;5063027;28;20021;-84
2021/10/13 08:58:23;;;;;;;16.83;9.38;;;;;;;8.08;95.64;99548.16;5064113;28;20029;-84
2021/10/13 09:01:09;;;;;;;20.85;9.98;;;;;;;8.21;93.85;99538.59;5062856;28;20025;-84
2021/10/13 09:03:45;;;;;;;19.58;9.70;;;;;;;8.48;93.71;99550.09;5063781;28;20065;-84
2021/10/13 09:06:24;;;;;;;22.10;11.57;;;;;;;8.60;93.11;99539.63;5064031;28;20102;-84
2021/10/13 09:09:10;;;;;;;20.77;10.70;;;;;;;8.69;92.11;99546.66;5062858;28;20032;-84
2021/10/13 09:11:44;;;;;;;20.13;11.15;;;;;;;8.87;92.80;99551.06;5062824;28;20271;-84
2021/10/13 09:14:18;;;;;;;19.23;10.65;;;;;;;8.98;94.39;99542.31;5062773;28;20189;-84
2021/10/13 09:17:04;;;;;;;19.15;9.43;;;;;;;9.17;93.56;99551.13;5062723;28;20339;-84
2021/10/13 09:19:51;;;;;;;20.88;10.85;;;;;;;9.29;94.33;99559.88;5062630;28;20339;-84
2021/10/13 09:22:18;;;;;;;19.70;10.48;;;;;;;9.39;93.88;99563.38;5062719;28;20016;-84
2021/10/13 09:24:52;;;;;;;17.80;10.32;;;;;;;9.47;91.14;99564.25;5062639;28;20048;-84
2021/10/13 09:27:20;;;;;;;26.45;11.55;;;;;;;9.33;91.99;99555.50;5063810;28;20035;-84
2021/10/13 09:29:45;;;;;;;25.80;12.32;;;;;;;9.56;92.05;99564.25;5062594;28;20096;-84
2021/10/13 09:32:11;;;;;;;25.92;11.60;;;;;;;9.73;93.08;99562.47;5063679;28;20028;-84
2021/10/13 09:34:45;;;;;;;17.10;10.13;;;;;;;9.82;92.50;99563.34;5062544;28;20021;-84
2021/10/13 09:37:10;;;;;;;26.40;11.40;;;;;;;9.83;92.95;99558.94;5063708;28;20028;-84
2021/10/13 09:39:37;;;;;;;18.60;10.05;;;;;;;10.00;92.34;99575.59;5062419;28;20286;-84
2021/10/13 09:42:10;;;;;;;18.23;9.55;;;;;;;10.18;90.53;99567.66;5063667;28;20058;-84
2021/10/13 09:44:40;;;;;;;18.35;8.98;;;;;;;10.26;90.56;99563.28;5062519;28;20020;-84
2021/10/13 09:47:11;;;;;;;19.10;9.73;;;;;;;10.24;91.40;99563.28;5063595;28;20028;-84
2021/10/13 09:49:40;;;;;;;19.27;9.63;;;;;;;10.29;90.32;99572.00;5062391;28;20024;-84
2021/10/13 09:52:13;;;;;;;17.63;9.32;;;;;;;10.32;89.38;99556.22;5062404;28;20025;-84
2021/10/13 09:54:40;;;;;;;20.95;9.32;;;;;;;10.31;89.95;99553.59;5062390;28;20061;-84
2021/10/13 09:57:23;;;;;;;18.45;9.15;;;;;;;10.34;89.93;99564.09;5062329;28;20058;-84
2021/10/13 10:00:04;;;;;;;13.00;8.00;;;;;;;10.42;88.50;99557.06;5063405;28;20094;-84
2021/10/13 10:02:33;;;;;;;15.77;8.75;;;;;;;10.55;89.49;99558.75;5063733;28;20049;-84
2021/10/13 10:05:06;;;;;;;18.20;7.82;;;;;;;10.60;88.39;99564.91;5066134;28;20044;-84
2021/10/13 10:07:31;;;;;;;21.85;9.82;;;;;;;10.61;89.47;99558.72;5067295;28;20048;-84
2021/10/13 10:10:10;;;;;;;19.50;8.98;;;;;;;10.78;89.64;99562.16;5067256;28;20013;-84
2021/10/13 10:13:04;;;;;;;17.00;9.23;;;;;;;10.96;88.68;99564.69;5067230;28;20024;-84
2021/10/13 10:15:38;;;;;;;15.90;7.55;;;;;;;11.54;85.39;99579.19;5061835;28;20351;-84
2021/10/13 10:18:31;;;;;;;17.08;8.15;;;;;;;12.08;81.51;99578.72;5065980;28;20103;-84
2021/10/13 10:21:13;;;;;;;;;;;;;;;11.99;84.13;99570.88;5066227;28;20309;-84
2021/10/13 10:23:40;;;;;;;11.77;5.70;;;;;;;12.34;80.52;99575.81;5067013;28;19911;-84
2021/10/13 10:26:28;;;;;;;16.05;7.43;;;;;;;13.17;79.52;99578.25;5066960;28;20264;-84
2021/10/13 10:28:54;;;;;;;13.75;7.05;;;;;;;12.83;79.49;99572.53;5065690;28;20056;-84
2021/10/13 10:31:30;;;;;;;16.67;7.15;;;;;;;12.65;78.66;99567.47;5065629;28;20021;-84
2021/10/13 10:34:07;;;;;;;11.82;6.82;;;;;;;12.67;79.28;99576.25;5066833;28;20031;-84
2021/10/13 10:36:37;;;;;;;13.05;6.25;;;;;;;12.60;81.86;99571.06;5065603;28;20104;-84
2021/10/13 10:39:10;;;;;;;13.80;6.03;;;;;;;12.26;81.34;99573.25;5066689;28;20193;-84
2021/10/13 10:41:40;;;;;;;13.82;5.63;;;;;;;12.47;81.51;99578.25;5065487;28;20025;-84
2021/10/13 10:44:29;;;;;;;12.70;6.32;;;;;;;12.51;82.33;99569.44;5065431;28;20055;-85
2021/10/13 10:47:07;;;;;;;16.17;4.15;;;;;;;12.33;79.72;99574.91;5066526;28;20067;-85
2021/10/13 10:49:53;;;;;;;11.20;4.32;;;;;;;12.45;80.50;99569.50;5065390;28;20021;-85
2021/10/13 10:52:26;;;;;;;11.82;4.80;;;;;;;12.38;83.21;99572.22;5065298;28;20032;-85
2021/10/13 10:54:58;;;;;;;11.73;5.07;;;;;;;12.34;82.17;99566.09;5066394;28;20048;-85
2021/10/13 10:57:29;;;;;;;14.57;4.60;;;;;;;12.18;81.16;99569.78;5065252;28;20024;-85
2021/10/13 10:59:55;;;;;;;18.30;4.95;;;;;;;12.32;81.72;99570.53;5065103;28;20060;-85
2021/10/13 11:02:22;;;;;;;16.30;6.20;;;;;;;12.32;82.50;99572.28;5064879;28;20336;-85
2021/10/13 11:05:05;;;;;;;10.18;5.32;;;;;;;12.26;82.00;99573.25;5065013;28;20392;-85
2021/10/13 11:07:32;;;;;;;14.82;6.63;;;;;;;12.30;81.23;99569.66;5066155;28;20251;-85
2021/10/13 11:10:12;;;;;;;16.20;6.30;;;;;;;12.61;82.47;99567.53;5064961;28;20047;-85
2021/10/13 11:12:52;;;;;;;17.23;5.75;;;;;;;12.74;80.12;99562.06;5065609;28;20092;-85
2021/10/13 11:15:21;;;;;;;10.77;5.88;;;;;;;12.75;79.48;99563.81;5064842;28;20023;-85
2021/10/13 11:17:47;;;;;;;11.60;5.70;;;;;;;12.61;83.82;99568.41;5064812;28;20220;-85
2021/10/13 11:20:15;;;;;;;21.40;6.10;;;;;;;12.86;81.33;99561.91;5064683;28;20017;-85
2021/10/13 11:22:41;;;;;;;18.30;5.82;;;;;;;12.73;80.91;99564.75;5064689;28;20124;-85
2021/10/13 11:25:18;;;;;;;13.40;6.75;;;;;;;12.55;82.83;99557.94;5065844;28;20020;-85
2021/10/13 11:28:05;;;;;;;13.82;5.47;;;;;;;12.55;82.95;99559.69;5065814;28;20031;-85
2021/10/13 11:30:42;;;;;;;18.02;6.07;;;;;;;12.17;82.89;99557.50;5064594;28;20021;-85
2021/10/13 11:33:09;;;;;;;11.25;4.65;;;;;;;12.02;83.64;99562.94;5065943;28;20028;-85
2021/10/13 11:35:35;;;;;;;10.98;4.63;;;;;;;11.69;83.65;99557.13;5064791;28;20028;-85
2021/10/13 11:38:01;;;;;;;16.13;5.25;;;;;;;11.42;84.58;99552.91;5065584;28;20374;-85
2021/10/13 11:40:27;;;;;;;12.98;4.60;;;;;;;11.49;84.42;99559.91;5064322;28;20017;-85
2021/10/13 11:42:57;;;;;;;12.02;5.05;;;;;;;11.56;84.25;99561.59;5064346;28;20021;-85